Time;durP1;ratioP1;P1;durP2;ratioP2;P2;SDS_P1;SDS_P2;PMS_P1;PMS_P2;Temp;Humidity;BMP_temperature;BMP_pressure;BME280_temperature;BME280_humidity;BME280_pressure;Samples;Min_cycle;Max_cycle;Signal;HPM_P1;HPM_P2
2023/04/27 00:00:13;;;;;;;14.27;8.18;;;;;;;6.55;78.57;101172.13;4982984;28;20138;-78
2023/04/27 00:02:40;;;;;;;11.27;8.32;;;;;;;6.54;78.95;101174.84;4978193;28;20449;-77
2023/04/27 00:05:10;;;;;;;19.05;9.10;;;;;;;6.45;78.99;101165.97;4977065;28;20138;-78
2023/04/27 00:07:36;;;;;;;19.50;9.52;;;;;;;6.39;78.67;101168.19;4980287;28;20066;-78
2023/04/27 00:10:03;;;;;;;12.98;8.27;;;;;;;6.34;79.01;101173.72;4979529;28;20074;-78
2023/04/27 00:12:30;;;;;;;16.30;8.82;;;;;;;6.33;79.25;101178.09;4976772;28;20101;-78
2023/04/27 00:14:56;;;;;;;15.73;9.00;;;;;;;6.25;79.28;101174.41;4976476;28;20058;-77
2023/04/27 00:17:25;;;;;;;12.80;8.13;;;;;;;6.21;79.59;101170.38;4969219;28;20051;-79
2023/04/27 00:19:52;;;;;;;12.70;8.23;;;;;;;6.19;80.24;101170.50;4976917;28;20051;-79
2023/04/27 00:22:18;;;;;;;11.75;8.60;;;;;;;6.16;80.57;101170.72;4977144;28;20121;-79
2023/04/27 00:24:45;;;;;;;12.57;8.93;;;;;;;6.10;80.67;101173.00;4978169;28;20134;-79
2023/04/27 00:27:12;;;;;;;13.63;8.88;;;;;;;6.17;80.72;101177.59;4976544;28;20051;-78
2023/04/27 00:29:41;;;;;;;13.32;8.85;;;;;;;6.08;80.92;101183.50;4977780;28;20050;-79
2023/04/27 00:32:08;;;;;;;16.27;9.73;;;;;;;6.02;81.34;101188.31;4976976;28;20114;-79
2023/04/27 00:34:36;;;;;;;17.17;8.95;;;;;;;6.01;81.64;101184.06;4976851;28;20072;-78
2023/04/27 00:37:03;;;;;;;13.95;8.77;;;;;;;6.01;81.83;101181.44;4976129;28;20521;-76
2023/04/27 00:39:29;;;;;;;14.38;9.15;;;;;;;6.02;81.35;101178.75;4977154;28;20061;-79
2023/04/27 00:41:56;;;;;;;14.77;9.43;;;;;;;6.03;81.68;101179.56;4977149;28;20078;-76
2023/04/27 00:44:24;;;;;;;16.58;9.70;;;;;;;5.99;81.53;101169.41;4977361;28;20082;-79
2023/04/27 00:46:51;;;;;;;13.35;9.20;;;;;;;6.00;81.60;101175.44;4977653;28;20149;-78
2023/04/27 00:49:17;;;;;;;12.98;8.95;;;;;;;6.01;81.85;101174.50;4977114;28;20137;-79
2023/04/27 00:51:45;;;;;;;14.68;9.05;;;;;;;6.02;81.84;101176.16;4977128;28;20529;-79
2023/04/27 00:54:13;;;;;;;16.60;8.90;;;;;;;5.98;82.37;101172.13;4977632;28;20593;-79
2023/04/27 00:56:39;;;;;;;14.77;9.27;;;;;;;5.91;81.97;101165.72;4976630;28;20138;-78
2023/04/27 00:59:06;;;;;;;14.80;9.70;;;;;;;5.85;81.38;101166.97;4981124;28;20085;-79
2023/04/27 01:01:33;;;;;;;14.20;9.27;;;;;;;5.86;81.71;101171.22;4978876;28;20138;-79
2023/04/27 01:04:00;;;;;;;14.55;9.10;;;;;;;5.87;82.23;101180.66;4979058;28;20047;-81
2023/04/27 01:06:28;;;;;;;16.10;8.35;;;;;;;5.81;81.73;101175.09;4978291;28;20074;-79
2023/04/27 01:08:56;;;;;;;15.05;9.18;;;;;;;5.83;81.92;101178.41;4979705;28;20043;-79
2023/04/27 01:11:23;;;;;;;16.73;8.60;;;;;;;5.80;82.30;101181.22;4979180;28;20082;-78
2023/04/27 01:13:49;;;;;;;20.85;9.45;;;;;;;5.79;81.79;101182.97;4977600;28;20150;-79
2023/04/27 01:16:17;;;;;;;14.10;9.07;;;;;;;5.70;82.17;101181.06;4975595;28;20080;-79
2023/04/27 01:18:44;;;;;;;15.45;9.38;;;;;;;5.63;82.81;101183.28;4976951;28;20077;-79
2023/04/27 01:21:11;;;;;;;13.55;9.15;;;;;;;5.58;82.75;101176.78;4976710;28;20046;-79
2023/04/27 01:23:39;;;;;;;15.93;9.13;;;;;;;5.48;83.18;101166.22;4976564;28;20137;-79
2023/04/27 01:26:06;;;;;;;12.70;8.23;;;;;;;5.49;83.47;101174.81;4979114;28;20047;-78
2023/04/27 01:28:32;;;;;;;13.50;8.95;;;;;;;5.37;83.85;101173.94;4985844;28;20114;-79
2023/04/27 01:30:59;;;;;;;14.68;9.57;;;;;;;5.28;83.79;101178.00;4980337;28;20089;-78
2023/04/27 01:33:26;;;;;;;14.98;9.30;;;;;;;5.26;84.30;101179.03;4976121;28;20047;-78
2023/04/27 01:35:52;;;;;;;14.32;9.68;;;;;;;5.16;84.38;101162.50;4975887;28;20138;-79
2023/04/27 01:38:19;;;;;;;13.73;9.65;;;;;;;5.12;85.03;101174.84;4975963;28;20545;-78
2023/04/27 01:40:49;;;;;;;17.63;9.32;;;;;;;5.09;85.39;101176.81;4975538;28;20065;-79
2023/04/27 01:43:16;;;;;;;17.58;9.20;;;;;;;4.99;85.35;101177.47;4976136;28;20061;-79
2023/04/27 01:45:42;;;;;;;15.85;9.68;;;;;;;4.99;85.87;101181.81;4975887;28;20070;-77
2023/04/27 01:48:09;;;;;;;14.45;9.20;;;;;;;4.95;86.40;101186.38;4975262;28;20055;-78
2023/04/27 01:50:36;;;;;;;14.82;10.07;;;;;;;4.94;86.52;101179.53;4975164;28;20137;-79
2023/04/27 01:53:03;;;;;;;19.65;9.48;;;;;;;4.86;86.54;101173.22;4975375;28;20118;-79
2023/04/27 01:55:29;;;;;;;16.13;10.15;;;;;;;4.82;87.09;101176.97;4975895;28;20058;-79
2023/04/27 01:57:57;;;;;;;14.13;9.68;;;;;;;4.76;86.70;101175.63;4974925;28;20118;-78
2023/04/27 02:00:26;;;;;;;19.20;10.25;;;;;;;4.71;86.83;101180.31;4977863;28;20561;-79
2023/04/27 02:02:56;;;;;;;16.45;9.85;;;;;;;4.64;87.46;101189.44;4992003;28;20046;-79
2023/04/27 02:05:23;;;;;;;18.83;9.50;;;;;;;4.59;87.59;101199.28;4982304;28;20418;-79
2023/04/27 02:07:50;;;;;;;12.82;9.23;;;;;;;4.56;87.60;101191.72;4976228;28;20058;-79
2023/04/27 02:10:16;;;;;;;13.85;10.23;;;;;;;4.46;87.62;101191.50;4974448;28;20494;-78
2023/04/27 02:12:43;;;;;;;19.75;10.43;;;;;;;4.47;87.47;101194.94;4974913;28;20114;-77
2023/04/27 02:15:11;;;;;;;14.52;9.70;;;;;;;4.44;87.96;101195.13;4978949;28;20114;-78
2023/04/27 02:17:38;;;;;;;18.83;9.90;;;;;;;4.32;88.36;101197.59;4978578;28;20127;-78
2023/04/27 02:20:06;;;;;;;17.33;10.13;;;;;;;4.31;88.82;101193.34;4979209;28;20039;-78
2023/04/27 02:22:34;;;;;;;14.52;10.20;;;;;;;4.21;88.84;101196.69;4974379;28;20401;-78
2023/04/27 02:25:01;;;;;;;14.82;9.45;;;;;;;4.20;88.74;101200.19;4974495;28;20125;-77
2023/04/27 02:27:27;;;;;;;19.23;9.82;;;;;;;4.17;89.59;101192.63;4973884;28;20047;-79
2023/04/27 02:29:54;;;;;;;14.60;9.60;;;;;;;4.18;89.35;101202.88;4974604;28;20525;-78
2023/04/27 02:32:22;;;;;;;21.50;10.98;;;;;;;4.17;89.79;101192.63;4976379;28;20105;-78
2023/04/27 02:34:49;;;;;;;17.05;10.30;;;;;;;4.14;90.39;101206.59;4977636;28;20129;-78
2023/04/27 02:37:15;;;;;;;16.35;10.40;;;;;;;4.08;90.00;101199.22;4974679;28;20082;-80
2023/04/27 02:39:42;;;;;;;19.30;10.07;;;;;;;4.05;90.40;101189.06;4974532;28;20050;-79
2023/04/27 02:42:09;;;;;;;18.38;10.65;;;;;;;4.06;90.40;101195.91;4973174;28;20126;-79
2023/04/27 02:44:36;;;;;;;19.38;10.13;;;;;;;4.00;90.40;101201.50;4973789;28;20083;-78
2023/04/27 02:47:02;;;;;;;18.13;9.65;;;;;;;3.96;90.73;101202.63;4973162;28;20145;-78
2023/04/27 02:49:30;;;;;;;22.02;9.95;;;;;;;3.96;90.50;101189.66;4974635;28;20134;-77
2023/04/27 02:51:57;;;;;;;15.10;9.90;;;;;;;3.85;90.96;101186.94;4978779;28;20081;-78
2023/04/27 02:54:24;;;;;;;17.55;10.15;;;;;;;3.84;91.69;101182.69;4983263;28;20062;-79
2023/04/27 02:56:50;;;;;;;18.80;10.70;;;;;;;3.78;91.81;101180.53;4988731;28;20093;-78
2023/04/27 02:59:17;;;;;;;17.83;10.90;;;;;;;3.75;91.63;101186.72;4996138;28;20051;-79
2023/04/27 03:01:44;;;;;;;16.95;10.57;;;;;;;3.79;92.32;101185.56;5011499;28;20069;-78
2023/04/27 03:04:12;;;;;;;24.40;11.82;;;;;;;3.79;92.28;101187.34;4994588;28;20051;-79
2023/04/27 03:06:41;;;;;;;16.80;10.48;;;;;;;3.76;91.97;101177.22;4977558;28;20053;-79
2023/04/27 03:09:09;;;;;;;14.77;9.68;;;;;;;3.70;92.01;101182.78;4977347;28;20062;-78
2023/04/27 03:11:35;;;;;;;18.88;10.63;;;;;;;3.74;92.66;101184.25;4975658;28;20059;-79
2023/04/27 03:14:02;;;;;;;16.48;10.70;;;;;;;3.64;92.46;101184.81;4975235;28;20618;-78
2023/04/27 03:16:31;;;;;;;18.33;10.20;;;;;;;3.54;92.47;101178.56;4974774;28;20074;-78
2023/04/27 03:18:57;;;;;;;17.05;11.18;;;;;;;3.56;92.43;101186.25;4976043;28;20054;-79
2023/04/27 03:21:25;;;;;;;22.40;10.80;;;;;;;3.52;92.77;101180.44;4976067;28;20428;-78
2023/04/27 03:23:53;;;;;;;18.02;10.77;;;;;;;3.42;92.88;101179.34;4976058;28;20497;-79
2023/04/27 03:26:20;;;;;;;16.08;10.80;;;;;;;3.44;92.93;101187.00;4975904;28;20650;-78
2023/04/27 03:28:46;;;;;;;19.38;11.02;;;;;;;3.42;92.83;101192.28;4976332;28;20113;-78
2023/04/27 03:31:15;;;;;;;20.45;10.93;;;;;;;3.40;93.15;101186.38;4975150;28;20470;-78
2023/04/27 03:33:41;;;;;;;18.10;11.05;;;;;;;3.32;93.49;101183.44;4976115;28;20058;-77
2023/04/27 03:36:10;;;;;;;19.25;11.40;;;;;;;3.30;93.39;101185.31;4975380;28;20138;-78
2023/04/27 03:38:36;;;;;;;17.20;11.35;;;;;;;3.29;93.87;101181.06;4974645;28;20051;-78
2023/04/27 03:41:05;;;;;;;21.15;11.35;;;;;;;3.29;93.27;101181.06;4974986;28;20130;-79
2023/04/27 03:43:31;;;;;;;16.23;11.25;;;;;;;3.26;93.45;101173.50;4976274;28;20081;-79
2023/04/27 03:45:58;;;;;;;19.13;10.90;;;;;;;3.24;93.57;101180.50;4974428;28;20140;-78
2023/04/27 03:48:25;;;;;;;18.42;11.55;;;;;;;3.21;93.83;101183.28;4975920;28;20133;-80
2023/04/27 03:50:51;;;;;;;17.92;10.80;;;;;;;3.19;93.94;101177.38;4983757;28;20489;-78
2023/04/27 03:53:18;;;;;;;17.58;11.05;;;;;;;3.20;94.55;101195.38;4980882;28;20075;-79
2023/04/27 03:55:45;;;;;;;21.70;11.05;;;;;;;3.17;94.54;101195.56;4984433;28;20050;-78
2023/04/27 03:58:13;;;;;;;16.30;10.63;;;;;;;3.17;94.29;101199.91;4973786;28;20133;-77
2023/04/27 04:00:40;;;;;;;20.58;11.45;;;;;;;3.19;94.09;101205.81;4979403;28;20126;-78
2023/04/27 04:03:07;;;;;;;18.50;11.10;;;;;;;3.12;94.00;101191.63;4978180;28;20074;-78
2023/04/27 04:05:34;;;;;;;18.60;11.55;;;;;;;3.10;94.11;101198.63;4978582;28;20095;-78
2023/04/27 04:08:00;;;;;;;20.95;11.50;;;;;;;3.09;94.64;101209.91;4978539;28;20071;-76
2023/04/27 04:10:27;;;;;;;22.83;11.38;;;;;;;3.12;94.43;101212.28;4977927;28;20129;-78
2023/04/27 04:12:54;;;;;;;18.77;11.30;;;;;;;3.10;94.80;101211.56;4976994;28;20133;-77
2023/04/27 04:15:22;;;;;;;17.50;11.10;;;;;;;3.11;94.93;101211.47;4977303;28;20060;-78
2023/04/27 04:17:48;;;;;;;21.85;11.10;;;;;;;3.11;94.73;101223.56;4975684;28;20089;-78
2023/04/27 04:20:15;;;;;;;17.67;11.73;;;;;;;3.12;95.25;101222.63;4976733;28;20047;-78
2023/04/27 04:22:43;;;;;;;17.10;11.18;;;;;;;3.12;95.02;101220.88;4976929;28;20098;-78
2023/04/27 04:25:10;;;;;;;17.77;11.10;;;;;;;3.17;94.83;101221.44;4977187;28;20051;-79
2023/04/27 04:27:37;;;;;;;18.48;11.30;;;;;;;3.14;95.15;101221.63;4977578;28;20415;-79
2023/04/27 04:30:05;;;;;;;19.20;11.43;;;;;;;3.21;94.65;101222.09;4980400;28;20066;-77
2023/04/27 04:32:36;;;;;;;23.65;12.13;;;;;;;3.25;94.74;101215.78;4980334;28;20695;-78
2023/04/27 04:35:04;;;;;;;18.20;12.40;;;;;;;3.28;94.69;101218.19;4978362;28;20500;-78
2023/04/27 04:37:33;;;;;;;19.42;10.98;;;;;;;3.39;94.63;101223.50;4976835;28;20085;-78
2023/04/27 04:39:59;;;;;;;18.38;10.35;;;;;;;3.44;94.59;101226.63;4977598;28;20050;-76
2023/04/27 04:42:26;;;;;;;17.23;11.35;;;;;;;3.48;94.38;101227.28;4978135;28;20054;-78
2023/04/27 04:44:53;;;;;;;17.67;11.57;;;;;;;3.59;93.79;101236.03;4978893;28;20106;-79
2023/04/27 04:47:19;;;;;;;19.75;11.85;;;;;;;3.69;94.05;101235.47;4977673;28;20078;-79
2023/04/27 04:49:47;;;;;;;20.98;12.27;;;;;;;3.77;93.60;101233.22;4978086;28;20129;-79
2023/04/27 04:52:14;;;;;;;19.63;11.55;;;;;;;3.83;93.29;101240.56;4978958;28;20501;-79
2023/04/27 04:54:40;;;;;;;18.30;11.88;;;;;;;3.91;92.98;101235.75;4978361;28;20110;-80
2023/04/27 04:57:07;;;;;;;19.30;10.73;;;;;;;4.02;92.94;101235.88;4977020;28;20054;-79
2023/04/27 04:59:34;;;;;;;18.75;10.85;;;;;;;4.11;92.60;101237.06;4980049;28;20054;-80
2023/04/27 05:02:00;;;;;;;18.95;11.32;;;;;;;4.22;91.73;101237.19;4978993;28;20075;-77
2023/04/27 05:04:27;;;;;;;17.58;11.00;;;;;;;4.34;91.43;101234.59;4981051;28;20232;-80
2023/04/27 05:06:55;;;;;;;21.45;12.02;;;;;;;4.47;90.63;101236.38;4979299;28;20074;-79
2023/04/27 05:09:22;;;;;;;22.55;10.82;;;;;;;4.53;90.14;101243.75;4978218;28;20562;-79
2023/04/27 05:11:49;;;;;;;17.10;10.82;;;;;;;4.65;90.11;101237.75;4978636;28;20129;-79
2023/04/27 05:14:15;;;;;;;23.20;11.93;;;;;;;4.73;90.01;101238.03;4978121;28;20130;-79
2023/04/27 05:16:42;;;;;;;20.73;12.27;;;;;;;4.88;89.06;101241.38;4978159;28;20181;-79
2023/04/27 05:19:08;;;;;;;19.00;11.38;;;;;;;4.89;88.54;101233.50;4978389;28;20109;-80
2023/04/27 05:21:35;;;;;;;19.75;11.35;;;;;;;5.18;88.26;101233.25;4977409;28;20086;-79
2023/04/27 05:24:03;;;;;;;16.38;10.82;;;;;;;5.85;87.72;101233.66;4978180;28;20074;-78
2023/04/27 05:26:30;;;;;;;17.17;10.93;;;;;;;6.57;85.04;101211.00;4977042;28;20054;-79
2023/04/27 05:28:57;;;;;;;19.55;9.82;;;;;;;7.58;82.12;101220.38;4977294;28;20436;-78
2023/04/27 05:31:23;;;;;;;16.50;10.02;;;;;;;8.14;78.90;101209.75;4976966;28;20126;-79
2023/04/27 05:33:50;;;;;;;18.40;10.43;;;;;;;8.97;76.34;101201.88;4977498;28;20133;-80
2023/04/27 05:36:16;;;;;;;17.08;10.15;;;;;;;9.44;73.54;101201.34;4981365;28;20089;-79
2023/04/27 05:38:43;;;;;;;15.50;9.50;;;;;;;10.19;71.01;101198.03;4980307;28;20078;-79
2023/04/27 05:41:11;;;;;;;18.77;10.18;;;;;;;10.74;68.74;101188.56;4979703;28;20076;-79
2023/04/27 05:43:38;;;;;;;16.63;9.38;;;;;;;11.21;67.16;101193.72;4979427;28;20066;-79
2023/04/27 05:46:04;;;;;;;15.73;10.18;;;;;;;10.68;66.16;101194.38;4975378;28;20057;-78
2023/04/27 05:48:31;;;;;;;17.60;10.35;;;;;;;9.78;67.47;101207.84;4975509;28;20073;-78
2023/04/27 05:51:01;;;;;;;16.67;9.82;;;;;;;10.38;67.32;101213.75;4975705;28;20043;-79
2023/04/27 05:53:28;;;;;;;15.32;10.32;;;;;;;10.38;66.15;101213.75;4975129;28;20063;-79
2023/04/27 05:55:55;;;;;;;17.13;10.32;;;;;;;9.83;66.40;101215.25;4975049;28;20082;-79
2023/04/27 05:58:23;;;;;;;18.50;11.10;;;;;;;9.26;67.97;101228.09;4978161;28;20068;-80
2023/04/27 06:00:50;;;;;;;14.82;10.27;;;;;;;9.19;68.27;101236.56;4985374;28;20151;-79
2023/04/27 06:03:16;;;;;;;19.05;11.05;;;;;;;9.38;68.74;101239.25;4988278;28;20178;-78
2023/04/27 06:05:43;;;;;;;17.65;10.98;;;;;;;9.18;68.66;101234.94;4987195;28;20050;-77
2023/04/27 06:08:09;;;;;;;19.25;10.55;;;;;;;10.23;67.99;101229.03;4974902;28;20141;-77
2023/04/27 06:10:36;;;;;;;16.65;11.32;;;;;;;10.18;66.25;101225.97;4974262;28;20409;-77
2023/04/27 06:13:03;;;;;;;20.40;10.50;;;;;;;10.80;66.03;101219.41;4973491;28;20549;-76
2023/04/27 06:15:31;;;;;;;17.33;10.07;;;;;;;11.39;64.13;101226.00;4973070;28;20533;-77
2023/04/27 06:17:58;;;;;;;17.85;9.65;;;;;;;11.23;63.18;101218.81;4973262;28;20061;-78
2023/04/27 06:20:25;;;;;;;20.50;10.63;;;;;;;12.42;60.85;101220.25;4972334;28;20133;-77
2023/04/27 06:22:51;;;;;;;18.05;10.48;;;;;;;13.31;59.26;101209.41;4972786;28;20135;-77
2023/04/27 06:25:18;;;;;;;16.25;10.05;;;;;;;12.46;59.33;101215.53;4972828;28;20477;-78
2023/04/27 06:27:44;;;;;;;17.35;11.00;;;;;;;12.41;60.61;101223.03;4971881;28;20105;-78
2023/04/27 06:30:12;;;;;;;15.70;10.65;;;;;;;12.78;60.16;101222.78;4972358;28;20130;-76
2023/04/27 06:32:40;;;;;;;15.93;10.90;;;;;;;13.15;58.05;101204.09;4973073;28;20125;-78
2023/04/27 06:35:07;;;;;;;18.23;11.13;;;;;;;13.83;57.43;101214.44;4973146;28;20130;-78
2023/04/27 06:37:34;;;;;;;18.92;11.55;;;;;;;12.89;58.51;101212.81;4974590;28;20110;-79
2023/04/27 06:40:00;;;;;;;16.92;10.25;;;;;;;13.20;58.75;101217.59;4975202;28;20057;-78
2023/04/27 06:42:27;;;;;;;16.67;11.10;;;;;;;13.56;57.74;101219.00;4977276;28;20574;-79
2023/04/27 06:44:55;;;;;;;17.02;11.30;;;;;;;13.41;57.73;101219.78;4974339;28;20119;-79
2023/04/27 06:47:40;;;;;;;17.55;10.93;;;;;;;14.38;56.33;101209.34;4999605;23;20146;-77
2023/04/27 06:50:08;;;;;;;14.85;10.90;;;;;;;14.83;55.65;101218.47;5006826;28;20113;-79
2023/04/27 06:52:35;;;;;;;19.88;11.50;;;;;;;14.84;55.23;101199.88;4997415;28;20052;-80
2023/04/27 06:55:02;;;;;;;18.30;12.50;;;;;;;14.45;55.38;101205.09;5007637;28;20114;-80
2023/04/27 06:57:28;;;;;;;17.80;11.35;;;;;;;13.47;57.11;101214.72;5004302;28;20189;-77
2023/04/27 06:59:57;;;;;;;19.42;12.40;;;;;;;13.76;57.39;101214.25;4990654;28;20080;-78
2023/04/27 07:02:23;;;;;;;18.52;12.23;;;;;;;13.70;56.73;101206.22;4987606;28;20055;-78
2023/04/27 07:04:50;;;;;;;18.30;10.85;;;;;;;15.22;54.53;101200.84;4977957;28;20138;-79
2023/04/27 07:07:18;;;;;;;18.50;12.27;;;;;;;15.37;53.91;101211.50;4978996;28;20150;-79
2023/04/27 07:09:45;;;;;;;20.65;11.80;;;;;;;15.37;53.07;101200.97;4967767;28;20662;-79
2023/04/27 07:12:12;;;;;;;18.85;12.23;;;;;;;14.82;53.80;101207.13;4977380;28;20107;-79
2023/04/27 07:14:38;;;;;;;17.77;12.07;;;;;;;13.34;55.50;101209.09;4981546;28;20101;-80
2023/04/27 07:17:05;;;;;;;21.70;12.68;;;;;;;14.35;55.02;101212.31;4982913;28;20085;-80
2023/04/27 07:19:32;;;;;;;19.00;13.52;;;;;;;13.56;56.24;101218.19;4984391;28;20073;-80
2023/04/27 07:21:58;;;;;;;19.67;13.00;;;;;;;14.40;55.70;101212.63;4982456;28;20042;-79
2023/04/27 07:24:27;;;;;;;20.45;12.35;;;;;;;13.23;56.23;101217.28;4980318;28;20551;-79
2023/04/27 07:26:53;;;;;;;21.45;12.57;;;;;;;14.41;54.79;101205.56;4980091;28;20076;-79
2023/04/27 07:29:20;;;;;;;20.73;12.30;;;;;;;14.58;55.03;101201.94;4980590;28;20086;-80
2023/04/27 07:31:48;;;;;;;23.60;13.38;;;;;;;15.17;53.38;101191.81;4984661;28;20051;-80
2023/04/27 07:34:17;;;;;;;19.85;12.88;;;;;;;15.65;52.52;101201.31;4983410;28;20134;-79
2023/04/27 07:36:45;;;;;;;23.10;12.73;;;;;;;14.78;52.74;101179.47;4983385;28;20050;-79
2023/04/27 07:39:11;;;;;;;16.58;12.75;;;;;;;13.64;55.28;101204.25;4984734;28;20095;-79
2023/04/27 07:41:42;;;;;;;18.42;12.25;;;;;;;14.77;54.07;101204.19;4982858;28;20138;-80
2023/04/27 07:44:09;;;;;;;20.52;12.70;;;;;;;15.23;53.55;101186.69;4984821;28;20050;-81
2023/04/27 07:46:37;;;;;;;16.23;12.77;;;;;;;15.16;52.24;101182.28;4984864;28;20051;-79
2023/04/27 07:49:04;;;;;;;19.05;13.18;;;;;;;14.96;52.33;101187.16;4975482;28;20074;-79
2023/04/27 07:51:31;;;;;;;19.23;12.60;;;;;;;15.82;52.02;101183.53;4981099;28;20204;-79
2023/04/27 07:53:57;;;;;;;19.58;13.18;;;;;;;15.95;51.43;101189.06;4982077;28;20054;-79
2023/04/27 07:56:24;;;;;;;22.17;13.90;;;;;;;14.32;52.89;101194.19;4978895;28;20328;-78
2023/04/27 07:58:52;;;;;;;23.30;13.18;;;;;;;14.11;53.76;101186.00;4992716;28;20086;-79
2023/04/27 08:01:19;;;;;;;23.23;14.25;;;;;;;13.98;54.20;101204.94;4991483;28;20047;-77
2023/04/27 08:03:46;;;;;;;22.40;13.73;;;;;;;14.93;53.39;101198.03;4992653;28;20134;-79
2023/04/27 08:06:13;;;;;;;19.98;13.10;;;;;;;14.79;53.10;101189.03;4982191;28;20101;-78
2023/04/27 08:08:39;;;;;;;18.05;13.45;;;;;;;14.77;52.28;101183.09;4984373;28;20051;-79
2023/04/27 08:11:09;;;;;;;19.38;12.63;;;;;;;15.05;51.58;101177.41;4984167;28;20137;-79
2023/04/27 08:13:36;;;;;;;17.27;12.82;;;;;;;13.76;52.96;101184.50;4986199;28;20122;-78
2023/04/27 08:16:04;;;;;;;19.90;13.68;;;;;;;13.84;53.42;101182.72;4985990;28;20059;-78
2023/04/27 08:18:31;;;;;;;18.20;13.30;;;;;;;13.83;53.78;101190.75;4986667;28;20082;-80
2023/04/27 08:20:58;;;;;;;19.40;13.65;;;;;;;14.14;53.86;101191.78;4985017;28;20050;-78
2023/04/27 08:23:27;;;;;;;17.48;12.57;;;;;;;13.87;53.59;101187.66;4982835;28;20070;-79
2023/04/27 08:25:53;;;;;;;19.63;13.35;;;;;;;13.43;53.10;101181.84;4982875;28;20260;-79
2023/04/27 08:28:20;;;;;;;19.67;13.55;;;;;;;13.28;53.36;101172.94;4980054;28;20118;-79
2023/04/27 08:30:46;;;;;;;22.50;13.43;;;;;;;14.09;52.92;101178.28;4981221;28;20055;-78
2023/04/27 08:33:14;;;;;;;22.48;12.95;;;;;;;15.13;51.67;101175.53;4969933;28;20114;-78
2023/04/27 08:35:41;;;;;;;20.33;13.20;;;;;;;15.51;48.86;101155.38;4970484;28;20058;-78
2023/04/27 08:38:08;;;;;;;17.52;12.25;;;;;;;15.52;48.69;101154.38;4978756;28;20544;-79
2023/04/27 08:40:34;;;;;;;18.27;12.57;;;;;;;14.77;50.14;101162.03;4983135;28;20046;-79
2023/04/27 08:43:01;;;;;;;18.30;12.63;;;;;;;15.24;49.34;101159.31;4983441;28;20085;-79
2023/04/27 08:45:28;;;;;;;18.33;13.07;;;;;;;14.43;50.20;101157.03;4978382;28;20105;-80
2023/04/27 08:47:55;;;;;;;15.38;11.70;;;;;;;14.42;50.31;101159.84;4985601;28;20054;-79
2023/04/27 08:50:24;;;;;;;15.25;11.98;;;;;;;13.28;50.78;101157.16;4977431;28;20050;-79
2023/04/27 08:52:51;;;;;;;16.13;11.43;;;;;;;14.63;50.60;101161.94;4984640;28;20046;-79
2023/04/27 08:55:18;;;;;;;18.95;12.70;;;;;;;13.71;51.56;101168.41;4983841;28;20371;-79
2023/04/27 08:57:55;;;;;;;17.98;13.15;;;;;;;13.87;51.65;101173.66;4985721;28;20079;-79
2023/04/27 09:00:22;;;;;;;20.20;12.38;;;;;;;13.95;51.16;101165.78;4979040;28;20054;-80
2023/04/27 09:02:49;;;;;;;18.90;11.75;;;;;;;14.57;49.97;101145.00;4982899;28;20039;-79
2023/04/27 09:05:19;;;;;;;19.77;12.50;;;;;;;15.56;49.71;101158.34;4982943;28;20083;-80
2023/04/27 09:08:04;;;;;;;22.08;12.38;;;;;;;15.35;48.30;101144.94;4980273;28;20081;-79
2023/04/27 09:10:43;;;;;;;18.58;13.07;;;;;;;15.38;49.63;101154.31;4977560;28;20050;-76
2023/04/27 09:13:09;;;;;;;21.17;12.43;;;;;;;15.31;48.82;101148.91;4979453;28;20106;-80
2023/04/27 09:15:42;;;;;;;20.35;12.57;;;;;;;15.80;48.58;101153.88;4978670;28;20283;-78
2023/04/27 09:18:15;;;;;;;18.95;12.30;;;;;;;15.47;47.92;101143.53;4982842;28;20074;-79
2023/04/27 09:20:45;;;;;;;16.13;11.90;;;;;;;15.95;48.11;101151.28;4976062;28;20043;-79
2023/04/27 09:23:26;;;;;;;21.77;12.57;;;;;;;15.53;47.72;101142.84;4980579;28;20043;-78
2023/04/27 09:25:53;;;;;;;19.65;12.80;;;;;;;15.61;47.76;101149.88;4982300;28;20094;-78
2023/04/27 09:28:20;;;;;;;16.77;12.35;;;;;;;15.06;48.00;101145.59;4980776;28;20054;-78
2023/04/27 09:30:51;;;;;;;17.42;11.57;;;;;;;14.82;47.41;101129.91;4982047;28;20046;-77
2023/04/27 09:33:23;;;;;;;18.30;11.27;;;;;;;15.20;48.04;101138.75;4983584;28;20477;-77
2023/04/27 09:35:50;;;;;;;16.23;12.35;;;;;;;15.38;48.18;101147.22;4976663;28;20121;-78
2023/04/27 09:38:19;;;;;;;20.23;12.48;;;;;;;15.52;47.57;101146.47;4973933;28;20065;-78
2023/04/27 09:40:46;;;;;;;17.58;12.27;;;;;;;15.06;47.73;101131.59;4984224;28;20050;-78
2023/04/27 09:43:14;;;;;;;18.33;13.18;;;;;;;14.59;49.21;101143.00;4980868;28;20480;-78
2023/04/27 09:45:41;;;;;;;16.90;12.45;;;;;;;14.74;48.81;101127.28;4979277;28;20114;-77
2023/04/27 09:48:08;;;;;;;20.08;12.38;;;;;;;14.18;49.63;101134.34;4979255;28;20070;-78
2023/04/27 09:50:36;;;;;;;20.27;12.57;;;;;;;14.25;49.47;101128.25;4979862;28;20046;-77
2023/04/27 09:53:06;;;;;;;17.45;11.85;;;;;;;14.18;49.11;101127.25;4976500;28;20111;-77
2023/04/27 09:55:39;;;;;;;15.75;11.82;;;;;;;14.10;49.53;101122.03;4981462;28;20138;-80
2023/04/27 09:58:14;;;;;;;;;;;;;;;14.16;49.57;101129.25;4980373;28;20046;-77
2023/04/27 10:00:56;;;;;;;18.70;12.27;;;;;;;14.72;49.21;101111.66;4974215;28;20412;-79
2023/04/27 10:03:31;;;;;;;20.75;12.48;;;;;;;13.68;48.88;101124.03;4976257;28;20047;-78
2023/04/27 10:06:32;;;;;;;18.10;12.25;;;;;;;14.11;47.83;101101.81;4982544;28;20098;-78
2023/04/27 10:09:04;;;;;;;19.67;11.85;;;;;;;14.40;47.87;101109.13;4952373;28;20046;-78
2023/04/27 10:11:39;;;;;;;17.15;11.80;;;;;;;14.21;47.93;101105.03;4980821;28;20053;-78
2023/04/27 10:14:08;;;;;;;17.45;12.40;;;;;;;14.82;47.70;101111.47;4982325;28;20057;-79
2023/04/27 10:16:44;;;;;;;17.25;12.30;;;;;;;14.62;48.43;101105.81;4976981;28;20050;-78
2023/04/27 10:19:10;;;;;;;18.90;11.63;;;;;;;15.44;49.17;101127.25;4975265;28;20433;-77
2023/04/27 10:21:37;;;;;;;16.73;11.70;;;;;;;16.15;47.90;101105.69;4974602;28;20133;-76
2023/04/27 10:24:08;;;;;;;17.25;12.60;;;;;;;14.92;47.62;101093.63;4974376;28;20057;-75
2023/04/27 10:26:36;;;;;;;17.58;11.23;;;;;;;15.02;48.40;101102.13;4976168;28;20054;-78
2023/04/27 10:29:06;;;;;;;20.25;13.05;;;;;;;15.81;47.77;101098.28;4974075;28;20203;-77
2023/04/27 10:31:33;;;;;;;15.50;12.18;;;;;;;15.81;47.35;101095.63;4981368;28;20062;-78
2023/04/27 10:34:08;;;;;;;23.75;12.18;;;;;;;14.43;48.80;101087.75;4977542;28;20145;-78
2023/04/27 10:36:36;;;;;;;21.20;12.10;;;;;;;15.17;48.83;101100.38;4980335;28;20074;-77
2023/04/27 10:39:04;;;;;;;16.00;12.52;;;;;;;14.32;48.20;101088.09;4978903;28;20043;-78
2023/04/27 10:41:35;;;;;;;18.77;12.50;;;;;;;13.86;49.26;101098.38;4981214;28;20055;-78
2023/04/27 10:44:16;;;;;;;18.08;12.48;;;;;;;14.40;48.69;101091.50;4980956;28;20105;-77
2023/04/27 10:46:53;;;;;;;15.98;12.35;;;;;;;14.54;48.51;101082.13;4975130;28;20379;-79
2023/04/27 10:49:20;;;;;;;18.02;13.93;;;;;;;15.46;48.72;101096.25;4981009;28;20070;-79
2023/04/27 10:51:51;;;;;;;19.08;12.90;;;;;;;15.99;47.80;101082.13;4977787;28;20046;-78
2023/04/27 10:54:18;;;;;;;17.55;12.50;;;;;;;16.22;46.99;101082.84;4983244;28;20059;-79
2023/04/27 10:56:46;;;;;;;17.70;11.75;;;;;;;15.09;46.87;101076.75;4976630;28;20065;-79
2023/04/27 10:59:12;;;;;;;19.50;12.27;;;;;;;15.64;46.74;101069.56;4975209;28;20081;-78
2023/04/27 11:01:41;;;;;;;16.65;12.30;;;;;;;15.16;47.43;101076.84;4975928;28;20493;-79
2023/04/27 11:04:07;;;;;;;21.10;12.75;;;;;;;14.75;47.84;101077.06;4977990;28;20077;-79
2023/04/27 11:06:42;;;;;;;16.58;11.85;;;;;;;15.49;47.93;101083.53;4983952;28;20074;-78
2023/04/27 11:09:09;;;;;;;17.20;12.10;;;;;;;15.87;47.30;101070.34;4975785;28;20417;-77
2023/04/27 11:11:36;;;;;;;16.63;11.68;;;;;;;15.46;47.38;101078.59;4982250;28;20387;-78
2023/04/27 11:14:04;;;;;;;20.23;12.18;;;;;;;15.57;47.28;101078.22;4977482;28;20082;-78
2023/04/27 11:16:31;;;;;;;20.23;12.63;;;;;;;15.11;47.59;101071.28;4984740;28;20057;-78